LAN4119 SKCG-SKBO
Flight info
| Callsign | LAN4119 |
|---|---|
| Flight time | 1h 1m |
| Altitude | 33000 |
| Route | ESKAB2A AKPEK UQ121 ISVAT ISVAT5E |
| Aircraft | A320/M-SDE3FGHIRWY/LB1 |
Departure
| Time | 2026-05-01 11:53 |
|---|---|
| Airport | Rafael Nuñez International Airport (SKCG) |
Arrival
| Time | 2026-05-01 12:54 |
|---|---|
| Airport | El Dorado International Airport (SKBO) |
| Time | Latitude | Longitude | Altitude | Speed | Heading |
|---|---|---|---|---|---|
| 2026-05-01 11:24 | 10.44649 | -75.51546 | 46 ft | 0 kts | 272° |
| 2026-05-01 11:43 | 10.44648 | -75.51532 | 51 ft | 3 kts | 269° |
| 2026-05-01 11:43 | 10.44650 | -75.51512 | 51 ft | 3 kts | 258° |
| 2026-05-01 11:44 | 10.44662 | -75.51487 | 46 ft | 2 kts | 150° |
| 2026-05-01 11:44 | 10.44665 | -75.51488 | 46 ft | 1 kts | 136° |
| 2026-05-01 11:47 | 10.44664 | -75.51488 | 46 ft | 1 kts | 136° |
| 2026-05-01 11:47 | 10.44654 | -75.51478 | 51 ft | 2 kts | 136° |
| 2026-05-01 11:47 | 10.44646 | -75.51461 | 50 ft | 4 kts | 112° |
| 2026-05-01 11:48 | 10.44639 | -75.51418 | 51 ft | 7 kts | 96° |
| 2026-05-01 11:48 | 10.44646 | -75.51374 | 49 ft | 6 kts | 77° |
| 2026-05-01 11:48 | 10.44652 | -75.51334 | 51 ft | 7 kts | 90° |
| 2026-05-01 11:48 | 10.44594 | -75.51278 | 51 ft | 18 kts | 168° |
| 2026-05-01 11:49 | 10.44478 | -75.51279 | 51 ft | 16 kts | 183° |
| 2026-05-01 11:49 | 10.44373 | -75.51284 | 51 ft | 14 kts | 183° |
| 2026-05-01 11:49 | 10.44274 | -75.51290 | 51 ft | 16 kts | 183° |
| 2026-05-01 11:49 | 10.44151 | -75.51294 | 51 ft | 19 kts | 182° |
| 2026-05-01 11:50 | 10.44011 | -75.51299 | 51 ft | 21 kts | 181° |
| 2026-05-01 11:50 | 10.43861 | -75.51305 | 51 ft | 23 kts | 182° |
| 2026-05-01 11:50 | 10.43696 | -75.51311 | 51 ft | 24 kts | 182° |
| 2026-05-01 11:50 | 10.43522 | -75.51318 | 51 ft | 26 kts | 183° |
| 2026-05-01 11:51 | 10.43340 | -75.51325 | 51 ft | 26 kts | 181° |
| 2026-05-01 11:51 | 10.43204 | -75.51290 | 48 ft | 19 kts | 133° |
| 2026-05-01 11:51 | 10.43099 | -75.51240 | 51 ft | 15 kts | 193° |
| 2026-05-01 11:51 | 10.43067 | -75.51314 | 51 ft | 11 kts | 272° |
| 2026-05-01 11:52 | 10.43110 | -75.51334 | 51 ft | 6 kts | 9° |
| 2026-05-01 11:52 | 10.43124 | -75.51334 | 51 ft | 0 kts | 360° |
| 2026-05-01 11:52 | 10.43127 | -75.51334 | 51 ft | 8 kts | 360° |
| 2026-05-01 11:52 | 10.43469 | -75.51323 | 51 ft | 87 kts | 2° |
| 2026-05-01 11:53 | 10.44291 | -75.51285 | 51 ft | 147 kts | 4° |
| 2026-05-01 11:53 | 10.45411 | -75.51211 | 384 ft | 165 kts | 3° |
| 2026-05-01 11:53 | 10.46574 | -75.51159 | 1012 ft | 168 kts | 3° |
| 2026-05-01 11:53 | 10.47785 | -75.51117 | 1499 ft | 180 kts | 3° |
| 2026-05-01 11:54 | 10.49089 | -75.51071 | 1838 ft | 195 kts | 2° |
| 2026-05-01 11:54 | 10.50465 | -75.51282 | 2201 ft | 209 kts | 330° |
| 2026-05-01 11:54 | 10.51415 | -75.52395 | 2586 ft | 218 kts | 287° |
| 2026-05-01 11:54 | 10.51390 | -75.53943 | 2970 ft | 228 kts | 244° |
| 2026-05-01 11:55 | 10.50462 | -75.55274 | 3400 ft | 239 kts | 225° |
| 2026-05-01 11:55 | 10.49215 | -75.56472 | 3850 ft | 255 kts | 219° |
| 2026-05-01 11:55 | 10.47831 | -75.57695 | 4351 ft | 271 kts | 219° |
| 2026-05-01 11:55 | 10.46403 | -75.58975 | 5047 ft | 277 kts | 220° |
| 2026-05-01 11:56 | 10.44969 | -75.60299 | 5800 ft | 279 kts | 218° |
| 2026-05-01 11:56 | 10.43334 | -75.61359 | 6525 ft | 281 kts | 202° |
| 2026-05-01 11:56 | 10.41475 | -75.61958 | 7214 ft | 282 kts | 188° |
| 2026-05-01 11:56 | 10.39519 | -75.62148 | 7912 ft | 285 kts | 183° |
| 2026-05-01 11:57 | 10.37528 | -75.62305 | 8615 ft | 288 kts | 183° |
| 2026-05-01 11:57 | 10.35520 | -75.62470 | 9315 ft | 292 kts | 183° |
| 2026-05-01 11:57 | 10.33485 | -75.62639 | 9985 ft | 295 kts | 183° |
| 2026-05-01 11:57 | 10.31415 | -75.62811 | 10489 ft | 304 kts | 183° |
| 2026-05-01 11:58 | 10.29245 | -75.62990 | 10784 ft | 321 kts | 183° |
| 2026-05-01 11:58 | 10.26964 | -75.63176 | 11054 ft | 337 kts | 183° |
| 2026-05-01 11:58 | 10.22080 | -75.63570 | 11705 ft | 363 kts | 184° |
| 2026-05-01 11:59 | 10.19548 | -75.63777 | 12273 ft | 366 kts | 184° |
| 2026-05-01 11:59 | 10.16999 | -75.63986 | 12844 ft | 370 kts | 184° |
| 2026-05-01 11:59 | 10.14416 | -75.64199 | 13415 ft | 374 kts | 184° |
| 2026-05-01 12:00 | 10.09186 | -75.64626 | 14430 ft | 380 kts | 184° |
| 2026-05-01 12:00 | 10.06539 | -75.64840 | 14933 ft | 383 kts | 184° |
| 2026-05-01 12:00 | 10.01192 | -75.65275 | 15919 ft | 388 kts | 184° |
| 2026-05-01 12:01 | 9.98486 | -75.65494 | 16404 ft | 391 kts | 184° |
| 2026-05-01 12:01 | 9.95767 | -75.65716 | 16886 ft | 394 kts | 184° |
| 2026-05-01 12:01 | 9.93021 | -75.65940 | 17359 ft | 397 kts | 184° |
| 2026-05-01 12:01 | 9.90255 | -75.66164 | 17835 ft | 400 kts | 184° |
| 2026-05-01 12:02 | 9.87476 | -75.66391 | 18288 ft | 403 kts | 184° |
| 2026-05-01 12:02 | 9.84667 | -75.66620 | 18724 ft | 405 kts | 184° |
| 2026-05-01 12:02 | 9.81857 | -75.66848 | 19177 ft | 406 kts | 184° |
| 2026-05-01 12:02 | 9.79043 | -75.67077 | 19652 ft | 407 kts | 184° |
| 2026-05-01 12:03 | 9.76212 | -75.67307 | 20106 ft | 409 kts | 184° |
| 2026-05-01 12:03 | 9.73373 | -75.67537 | 20542 ft | 411 kts | 184° |
| 2026-05-01 12:03 | 9.70520 | -75.67767 | 20976 ft | 412 kts | 184° |
| 2026-05-01 12:03 | 9.67649 | -75.68000 | 21402 ft | 414 kts | 184° |
| 2026-05-01 12:04 | 9.64816 | -75.68230 | 21819 ft | 415 kts | 185° |
| 2026-05-01 12:04 | 9.61926 | -75.68467 | 22235 ft | 417 kts | 185° |
| 2026-05-01 12:04 | 9.59034 | -75.68703 | 22637 ft | 418 kts | 185° |
| 2026-05-01 12:04 | 9.56130 | -75.68937 | 23033 ft | 420 kts | 185° |
| 2026-05-01 12:05 | 9.53211 | -75.69171 | 23416 ft | 421 kts | 185° |
| 2026-05-01 12:05 | 9.47347 | -75.69640 | 24010 ft | 425 kts | 185° |
| 2026-05-01 12:05 | 9.44392 | -75.69877 | 24290 ft | 427 kts | 185° |
| 2026-05-01 12:06 | 9.41431 | -75.70119 | 24561 ft | 428 kts | 185° |
| 2026-05-01 12:06 | 9.38450 | -75.70364 | 24832 ft | 430 kts | 185° |
| 2026-05-01 12:06 | 9.35458 | -75.70609 | 25098 ft | 432 kts | 185° |
| 2026-05-01 12:06 | 9.32457 | -75.70852 | 25355 ft | 434 kts | 185° |
| 2026-05-01 12:07 | 9.29438 | -75.71097 | 25602 ft | 436 kts | 185° |
| 2026-05-01 12:07 | 9.26404 | -75.71341 | 25848 ft | 438 kts | 185° |
| 2026-05-01 12:07 | 9.23358 | -75.71586 | 26095 ft | 440 kts | 186° |
| 2026-05-01 12:07 | 9.20297 | -75.71835 | 26338 ft | 442 kts | 186° |
| 2026-05-01 12:08 | 9.17229 | -75.72085 | 26578 ft | 444 kts | 186° |
| 2026-05-01 12:08 | 9.14139 | -75.72338 | 26816 ft | 446 kts | 186° |
| 2026-05-01 12:08 | 9.11037 | -75.72590 | 27050 ft | 448 kts | 186° |
| 2026-05-01 12:08 | 9.07932 | -75.72840 | 27275 ft | 449 kts | 186° |
| 2026-05-01 12:09 | 9.04807 | -75.73091 | 27495 ft | 451 kts | 186° |
| 2026-05-01 12:09 | 9.01663 | -75.73344 | 27723 ft | 453 kts | 186° |
| 2026-05-01 12:09 | 8.98518 | -75.73595 | 27939 ft | 454 kts | 186° |
| 2026-05-01 12:09 | 8.95358 | -75.73848 | 28136 ft | 456 kts | 186° |
| 2026-05-01 12:10 | 8.92195 | -75.74102 | 28356 ft | 457 kts | 186° |
| 2026-05-01 12:10 | 8.85823 | -75.74619 | 28726 ft | 461 kts | 186° |
| 2026-05-01 12:10 | 8.82621 | -75.74877 | 28917 ft | 462 kts | 186° |
| 2026-05-01 12:11 | 8.76188 | -75.75392 | 29312 ft | 465 kts | 186° |
| 2026-05-01 12:11 | 8.72956 | -75.75656 | 29477 ft | 466 kts | 186° |
| 2026-05-01 12:11 | 8.69713 | -75.75923 | 29652 ft | 467 kts | 186° |
| 2026-05-01 12:12 | 8.66478 | -75.76187 | 29868 ft | 467 kts | 186° |
| 2026-05-01 12:12 | 8.63248 | -75.76448 | 30099 ft | 466 kts | 186° |
| 2026-05-01 12:12 | 8.61111 | -75.76621 | 30250 ft | 465 kts | 186° |
| 2026-05-01 12:12 | 8.57886 | -75.76880 | 30482 ft | 464 kts | 186° |
| 2026-05-01 12:13 | 8.54672 | -75.77136 | 30705 ft | 463 kts | 186° |
| 2026-05-01 12:13 | 8.51471 | -75.77393 | 30921 ft | 462 kts | 186° |
| 2026-05-01 12:13 | 8.48274 | -75.77653 | 31145 ft | 461 kts | 186° |
| 2026-05-01 12:13 | 8.45077 | -75.77915 | 31369 ft | 460 kts | 186° |
| 2026-05-01 12:14 | 8.41890 | -75.78172 | 31587 ft | 459 kts | 186° |
| 2026-05-01 12:14 | 8.38709 | -75.78426 | 31812 ft | 458 kts | 186° |
| 2026-05-01 12:14 | 8.35535 | -75.78676 | 32034 ft | 457 kts | 186° |
| 2026-05-01 12:14 | 8.32368 | -75.78926 | 32249 ft | 456 kts | 186° |
| 2026-05-01 12:15 | 8.29202 | -75.79179 | 32483 ft | 456 kts | 186° |
| 2026-05-01 12:15 | 8.26048 | -75.79434 | 32706 ft | 455 kts | 186° |
| 2026-05-01 12:15 | 8.22895 | -75.79694 | 32832 ft | 454 kts | 187° |
| 2026-05-01 12:15 | 8.19759 | -75.79953 | 32863 ft | 452 kts | 186° |
| 2026-05-01 12:16 | 8.13482 | -75.80458 | 32861 ft | 452 kts | 186° |
| 2026-05-01 12:16 | 8.07209 | -75.80958 | 32860 ft | 453 kts | 186° |
| 2026-05-01 12:17 | 8.00923 | -75.81452 | 32862 ft | 453 kts | 184° |
| 2026-05-01 12:17 | 7.94625 | -75.80824 | 32863 ft | 459 kts | 171° |
| 2026-05-01 12:18 | 7.88367 | -75.79564 | 32871 ft | 459 kts | 171° |
| 2026-05-01 12:18 | 7.82101 | -75.78323 | 32872 ft | 459 kts | 171° |
| 2026-05-01 12:19 | 7.75825 | -75.77077 | 32887 ft | 460 kts | 171° |
| 2026-05-01 12:19 | 7.69548 | -75.75825 | 32896 ft | 460 kts | 171° |
| 2026-05-01 12:20 | 7.63274 | -75.74573 | 32903 ft | 460 kts | 171° |
| 2026-05-01 12:20 | 7.56984 | -75.73328 | 32910 ft | 460 kts | 171° |
| 2026-05-01 12:21 | 7.50695 | -75.72081 | 32914 ft | 461 kts | 171° |
| 2026-05-01 12:21 | 7.44394 | -75.70826 | 32929 ft | 462 kts | 171° |
| 2026-05-01 12:22 | 7.38086 | -75.69568 | 32949 ft | 462 kts | 171° |
| 2026-05-01 12:22 | 7.31778 | -75.68309 | 32963 ft | 462 kts | 171° |
| 2026-05-01 12:23 | 7.25468 | -75.67054 | 32979 ft | 462 kts | 171° |
| 2026-05-01 12:23 | 7.19161 | -75.65807 | 32993 ft | 461 kts | 171° |
| 2026-05-01 12:24 | 7.12863 | -75.64557 | 33007 ft | 461 kts | 171° |
| 2026-05-01 12:24 | 7.06575 | -75.63303 | 33016 ft | 460 kts | 172° |
| 2026-05-01 12:25 | 6.97197 | -75.61452 | 33030 ft | 460 kts | 172° |
| 2026-05-01 12:26 | 6.90917 | -75.60211 | 33043 ft | 460 kts | 171° |
| 2026-05-01 12:26 | 6.81505 | -75.58339 | 33050 ft | 459 kts | 171° |
| 2026-05-01 12:27 | 6.72113 | -75.56471 | 33064 ft | 459 kts | 172° |
| 2026-05-01 12:28 | 6.62715 | -75.54610 | 33077 ft | 459 kts | 172° |
| 2026-05-01 12:29 | 6.53322 | -75.52750 | 33099 ft | 458 kts | 172° |
| 2026-05-01 12:29 | 6.43931 | -75.50897 | 33129 ft | 459 kts | 172° |
| 2026-05-01 12:30 | 6.34535 | -75.49043 | 33151 ft | 458 kts | 172° |
| 2026-05-01 12:31 | 6.28284 | -75.47801 | 33275 ft | 458 kts | 172° |
| 2026-05-01 12:31 | 6.22026 | -75.46565 | 33307 ft | 458 kts | 172° |
| 2026-05-01 12:32 | 6.15772 | -75.45327 | 33308 ft | 458 kts | 172° |
| 2026-05-01 12:32 | 6.06387 | -75.43467 | 33297 ft | 458 kts | 172° |
| 2026-05-01 12:33 | 6.00209 | -75.41869 | 33258 ft | 462 kts | 160° |
| 2026-05-01 12:33 | 5.94769 | -75.38418 | 33210 ft | 470 kts | 140° |
| 2026-05-01 12:34 | 5.90161 | -75.33711 | 33165 ft | 471 kts | 137° |
| 2026-05-01 12:34 | 5.85578 | -75.29008 | 33125 ft | 471 kts | 137° |
| 2026-05-01 12:35 | 5.80989 | -75.24304 | 33002 ft | 473 kts | 137° |
| 2026-05-01 12:35 | 5.78681 | -75.21944 | 32145 ft | 475 kts | 137° |
| 2026-05-01 12:35 | 5.76377 | -75.19591 | 31013 ft | 482 kts | 137° |
| 2026-05-01 12:36 | 5.73994 | -75.17155 | 30211 ft | 480 kts | 136° |
| 2026-05-01 12:36 | 5.71661 | -75.14788 | 29484 ft | 474 kts | 139° |
| 2026-05-01 12:36 | 5.69106 | -75.12741 | 28792 ft | 465 kts | 148° |
| 2026-05-01 12:36 | 5.66297 | -75.11189 | 28118 ft | 457 kts | 158° |
| 2026-05-01 12:37 | 5.63373 | -75.09982 | 27458 ft | 452 kts | 159° |
| 2026-05-01 12:37 | 5.60478 | -75.08796 | 26811 ft | 448 kts | 158° |
| 2026-05-01 12:37 | 5.57612 | -75.07616 | 26159 ft | 444 kts | 158° |
| 2026-05-01 12:37 | 5.54768 | -75.06441 | 25518 ft | 440 kts | 158° |
| 2026-05-01 12:38 | 5.51945 | -75.05278 | 24874 ft | 437 kts | 157° |
| 2026-05-01 12:38 | 5.49139 | -75.04123 | 24219 ft | 434 kts | 157° |
| 2026-05-01 12:38 | 5.46349 | -75.02974 | 23561 ft | 432 kts | 156° |
| 2026-05-01 12:38 | 5.43581 | -75.01833 | 22882 ft | 428 kts | 156° |
| 2026-05-01 12:39 | 5.40886 | -75.00722 | 22438 ft | 408 kts | 156° |
| 2026-05-01 12:39 | 5.38308 | -74.99660 | 22295 ft | 394 kts | 156° |
| 2026-05-01 12:39 | 5.35816 | -74.98625 | 22072 ft | 383 kts | 156° |
| 2026-05-01 12:39 | 5.33380 | -74.97595 | 21583 ft | 376 kts | 156° |
| 2026-05-01 12:40 | 5.30993 | -74.96579 | 20751 ft | 371 kts | 155° |
| 2026-05-01 12:40 | 5.28641 | -74.95576 | 20068 ft | 363 kts | 155° |
| 2026-05-01 12:40 | 5.26330 | -74.94590 | 19529 ft | 359 kts | 155° |
| 2026-05-01 12:40 | 5.24042 | -74.93616 | 19003 ft | 355 kts | 155° |
| 2026-05-01 12:41 | 5.21874 | -74.92447 | 18482 ft | 354 kts | 143° |
| 2026-05-01 12:41 | 5.20033 | -74.90817 | 17965 ft | 352 kts | 130° |
| 2026-05-01 12:41 | 5.18627 | -74.88837 | 17509 ft | 348 kts | 120° |
| 2026-05-01 12:41 | 5.17419 | -74.86726 | 17065 ft | 346 kts | 119° |
| 2026-05-01 12:42 | 5.16247 | -74.84663 | 16940 ft | 334 kts | 119° |
| 2026-05-01 12:42 | 5.15087 | -74.82633 | 16708 ft | 338 kts | 120° |
| 2026-05-01 12:42 | 5.13910 | -74.80593 | 16472 ft | 337 kts | 120° |
| 2026-05-01 12:42 | 5.12734 | -74.78565 | 16248 ft | 336 kts | 120° |
| 2026-05-01 12:43 | 5.11557 | -74.76544 | 16025 ft | 336 kts | 120° |
| 2026-05-01 12:43 | 5.10384 | -74.74529 | 15796 ft | 334 kts | 120° |
| 2026-05-01 12:43 | 5.09218 | -74.72520 | 15572 ft | 333 kts | 120° |
| 2026-05-01 12:43 | 5.08056 | -74.70513 | 15368 ft | 332 kts | 120° |
| 2026-05-01 12:44 | 5.06899 | -74.68517 | 15187 ft | 331 kts | 120° |
| 2026-05-01 12:44 | 5.05740 | -74.66520 | 15089 ft | 330 kts | 120° |
| 2026-05-01 12:44 | 5.03452 | -74.62576 | 14804 ft | 318 kts | 120° |
| 2026-05-01 12:45 | 5.01287 | -74.58841 | 14553 ft | 304 kts | 120° |
| 2026-05-01 12:45 | 5.00243 | -74.57038 | 14427 ft | 304 kts | 120° |
| 2026-05-01 12:45 | 4.99186 | -74.55210 | 14307 ft | 302 kts | 120° |
| 2026-05-01 12:46 | 4.98136 | -74.53397 | 14173 ft | 296 kts | 120° |
| 2026-05-01 12:46 | 4.97115 | -74.51638 | 14046 ft | 288 kts | 120° |
| 2026-05-01 12:46 | 4.96126 | -74.49933 | 13914 ft | 279 kts | 120° |
| 2026-05-01 12:46 | 4.95156 | -74.48263 | 13769 ft | 276 kts | 120° |
| 2026-05-01 12:47 | 4.94193 | -74.46604 | 13625 ft | 275 kts | 120° |
| 2026-05-01 12:47 | 4.93233 | -74.44949 | 13475 ft | 274 kts | 120° |
| 2026-05-01 12:47 | 4.92289 | -74.43321 | 13344 ft | 274 kts | 120° |
| 2026-05-01 12:47 | 4.91331 | -74.41676 | 13212 ft | 271 kts | 122° |
| 2026-05-01 12:48 | 4.90266 | -74.40164 | 13109 ft | 261 kts | 125° |
| 2026-05-01 12:48 | 4.89246 | -74.38745 | 13003 ft | 251 kts | 125° |
| 2026-05-01 12:48 | 4.88254 | -74.37358 | 12809 ft | 244 kts | 125° |
| 2026-05-01 12:48 | 4.87252 | -74.35955 | 12392 ft | 246 kts | 125° |
| 2026-05-01 12:49 | 4.86283 | -74.34596 | 12336 ft | 233 kts | 125° |
| 2026-05-01 12:49 | 4.85359 | -74.33305 | 12291 ft | 221 kts | 125° |
| 2026-05-01 12:49 | 4.84432 | -74.32143 | 12277 ft | 210 kts | 135° |
| 2026-05-01 12:49 | 4.83318 | -74.31179 | 12139 ft | 214 kts | 138° |
| 2026-05-01 12:50 | 4.82162 | -74.30191 | 11705 ft | 220 kts | 139° |
| 2026-05-01 12:50 | 4.81009 | -74.29203 | 11399 ft | 216 kts | 139° |
| 2026-05-01 12:50 | 4.79875 | -74.28230 | 11124 ft | 211 kts | 139° |
| 2026-05-01 12:50 | 4.78889 | -74.27212 | 10886 ft | 195 kts | 130° |
| 2026-05-01 12:51 | 4.78081 | -74.26194 | 10679 ft | 177 kts | 127° |
| 2026-05-01 12:51 | 4.77363 | -74.25254 | 10480 ft | 172 kts | 127° |
| 2026-05-01 12:51 | 4.75985 | -74.23436 | 10070 ft | 160 kts | 127° |
| 2026-05-01 12:52 | 4.75315 | -74.22551 | 9852 ft | 159 kts | 127° |
| 2026-05-01 12:52 | 4.73979 | -74.20787 | 9430 ft | 158 kts | 127° |
| 2026-05-01 12:52 | 4.73315 | -74.19910 | 9193 ft | 159 kts | 127° |
| 2026-05-01 12:53 | 4.71967 | -74.18139 | 8717 ft | 160 kts | 126° |
| 2026-05-01 12:53 | 4.71301 | -74.17246 | 8499 ft | 161 kts | 124° |
| 2026-05-01 12:53 | 4.70639 | -74.16365 | 8367 ft | 150 kts | 125° |
| 2026-05-01 12:54 | 4.70115 | -74.15671 | 8364 ft | 92 kts | 129° |
| 2026-05-01 12:54 | 4.69736 | -74.15161 | 8365 ft | 32 kts | 101° |
| 2026-05-01 12:54 | 4.69709 | -74.14988 | 8365 ft | 13 kts | 95° |
| 2026-05-01 12:55 | 4.69736 | -74.14821 | 8366 ft | 12 kts | 35° |
| 2026-05-01 12:55 | 4.69783 | -74.14789 | 8366 ft | 13 kts | 34° |
| 2026-05-01 12:55 | 4.69844 | -74.14712 | 8366 ft | 10 kts | 109° |
| 2026-05-01 12:56 | 4.69821 | -74.14673 | 8366 ft | 10 kts | 128° |
| 2026-05-01 12:56 | 4.69777 | -74.14616 | 8366 ft | 11 kts | 128° |
| 2026-05-01 12:56 | 4.69743 | -74.14572 | 8366 ft | 3 kts | 128° |
| 2026-05-01 12:56 | 4.69741 | -74.14557 | 8366 ft | 2 kts | 76° |
| 2026-05-01 12:57 | 4.69756 | -74.14541 | 8366 ft | 4 kts | 41° |
| 2026-05-01 12:57 | 4.69775 | -74.14526 | 8366 ft | 0 kts | 38° |